Time;durP1;ratioP1;P1;durP2;ratioP2;P2;SDS_P1;SDS_P2;PMS_P1;PMS_P2;Temp;Humidity;BMP_temperature;BMP_pressure;BME280_temperature;BME280_humidity;BME280_pressure;Samples;Min_cycle;Max_cycle;Signal;HPM_P1;HPM_P2
2022/03/11 00:02:00;;;;;;;574.62;521.30;;;;;;;;;;;;;-59
2022/03/11 00:05:00;;;;;;;575.95;522.53;;;;;;;;;;;;;-59
2022/03/11 00:08:00;;;;;;;578.74;525.19;;;;;;;;;;;;;-59
2022/03/11 00:11:00;;;;;;;577.52;523.95;;;;;;;;;;;;;-59
2022/03/11 00:14:00;;;;;;;572.23;518.95;;;;;;;;;;;;;-59
2022/03/11 00:17:00;;;;;;;572.86;519.56;;;;;;;;;;;;;-57
2022/03/11 00:20:00;;;;;;;573.09;520.03;;;;;;;;;;;;;-57
2022/03/11 00:23:00;;;;;;;570.49;517.25;;;;;;;;;;;;;-57
2022/03/11 00:26:00;;;;;;;573.69;520.47;;;;;;;;;;;;;-59
2022/03/11 00:29:00;;;;;;;564.23;511.29;;;;;;;;;;;;;-58
2022/03/11 00:32:00;;;;;;;563.57;510.65;;;;;;;;;;;;;-58
2022/03/11 00:35:00;;;;;;;565.17;512.11;;;;;;;;;;;;;-59
2022/03/11 00:38:00;;;;;;;565.03;512.07;;;;;;;;;;;;;-60
2022/03/11 00:41:00;;;;;;;562.73;509.63;;;;;;;;;;;;;-60
2022/03/11 00:44:00;;;;;;;563.40;510.23;;;;;;;;;;;;;-60
2022/03/11 00:47:00;;;;;;;562.29;509.23;;;;;;;;;;;;;-60
2022/03/11 00:50:00;;;;;;;562.75;509.60;;;;;;;;;;;;;-60
2022/03/11 00:53:01;;;;;;;557.65;504.68;;;;;;;;;;;;;-60
2022/03/11 00:56:00;;;;;;;558.42;505.35;;;;;;;;;;;;;-59
2022/03/11 00:59:00;;;;;;;559.12;505.97;;;;;;;;;;;;;-60
2022/03/11 01:02:00;;;;;;;557.59;504.65;;;;;;;;;;;;;-60
2022/03/11 01:05:00;;;;;;;557.37;504.31;;;;;;;;;;;;;-59
2022/03/11 01:08:00;;;;;;;562.09;508.89;;;;;;;;;;;;;-60
2022/03/11 01:11:00;;;;;;;559.12;506.17;;;;;;;;;;;;;-60
2022/03/11 01:14:00;;;;;;;558.43;505.38;;;;;;;;;;;;;-60
2022/03/11 01:17:00;;;;;;;557.76;504.95;;;;;;;;;;;;;-60
2022/03/11 01:20:00;;;;;;;555.33;502.56;;;;;;;;;;;;;-60
2022/03/11 01:23:00;;;;;;;553.82;501.05;;;;;;;;;;;;;-60
2022/03/11 01:26:00;;;;;;;557.60;504.68;;;;;;;;;;;;;-60
2022/03/11 01:29:00;;;;;;;561.66;508.57;;;;;;;;;;;;;-60
2022/03/11 01:32:00;;;;;;;558.75;505.81;;;;;;;;;;;;;-60
2022/03/11 01:35:00;;;;;;;557.08;504.34;;;;;;;;;;;;;-61
2022/03/11 01:38:00;;;;;;;555.83;503.28;;;;;;;;;;;;;-60
2022/03/11 01:41:00;;;;;;;555.38;502.53;;;;;;;;;;;;;-59
2022/03/11 01:44:00;;;;;;;555.95;503.31;;;;;;;;;;;;;-59
2022/03/11 01:47:00;;;;;;;556.47;503.60;;;;;;;;;;;;;-60
2022/03/11 01:50:00;;;;;;;555.35;502.67;;;;;;;;;;;;;-58
2022/03/11 01:53:00;;;;;;;554.79;502.15;;;;;;;;;;;;;-59
2022/03/11 01:56:00;;;;;;;555.49;502.86;;;;;;;;;;;;;-60
2022/03/11 01:59:00;;;;;;;556.49;503.83;;;;;;;;;;;;;-60
2022/03/11 02:02:00;;;;;;;552.80;500.45;;;;;;;;;;;;;-60
2022/03/11 02:05:00;;;;;;;551.24;498.72;;;;;;;;;;;;;-59
2022/03/11 02:08:00;;;;;;;547.22;494.85;;;;;;;;;;;;;-59
2022/03/11 02:11:00;;;;;;;551.03;498.49;;;;;;;;;;;;;-59
2022/03/11 02:14:00;;;;;;;554.53;501.94;;;;;;;;;;;;;-60
2022/03/11 02:17:00;;;;;;;546.18;494.08;;;;;;;;;;;;;-60
2022/03/11 02:20:00;;;;;;;543.31;491.27;;;;;;;;;;;;;-59
2022/03/11 02:23:00;;;;;;;544.83;492.51;;;;;;;;;;;;;-60
2022/03/11 02:26:00;;;;;;;547.19;494.83;;;;;;;;;;;;;-59
2022/03/11 02:29:00;;;;;;;541.73;489.65;;;;;;;;;;;;;-60
2022/03/11 02:32:00;;;;;;;548.24;495.79;;;;;;;;;;;;;-59
2022/03/11 02:35:00;;;;;;;545.73;493.37;;;;;;;;;;;;;-59
2022/03/11 02:38:00;;;;;;;545.79;493.63;;;;;;;;;;;;;-60
2022/03/11 02:41:00;;;;;;;549.60;497.24;;;;;;;;;;;;;-60
2022/03/11 02:44:00;;;;;;;543.03;490.97;;;;;;;;;;;;;-59
2022/03/11 02:47:00;;;;;;;542.47;490.29;;;;;;;;;;;;;-60
2022/03/11 02:50:00;;;;;;;543.55;491.39;;;;;;;;;;;;;-60
2022/03/11 02:53:00;;;;;;;543.85;491.54;;;;;;;;;;;;;-60
2022/03/11 02:56:01;;;;;;;542.57;490.35;;;;;;;;;;;;;-60
2022/03/11 02:59:00;;;;;;;541.54;489.27;;;;;;;;;;;;;-60
2022/03/11 03:02:00;;;;;;;542.36;490.13;;;;;;;;;;;;;-60
2022/03/11 03:05:01;;;;;;;546.84;494.40;;;;;;;;;;;;;-60
2022/03/11 03:08:00;;;;;;;549.55;496.96;;;;;;;;;;;;;-61
2022/03/11 03:11:00;;;;;;;544.53;492.18;;;;;;;;;;;;;-60
2022/03/11 03:14:00;;;;;;;544.92;492.49;;;;;;;;;;;;;-60
2022/03/11 03:17:00;;;;;;;540.91;488.74;;;;;;;;;;;;;-60
2022/03/11 03:20:00;;;;;;;546.04;493.64;;;;;;;;;;;;;-60
2022/03/11 03:23:00;;;;;;;544.47;492.23;;;;;;;;;;;;;-60
2022/03/11 03:26:01;;;;;;;546.15;493.81;;;;;;;;;;;;;-60
2022/03/11 03:29:00;;;;;;;544.61;492.28;;;;;;;;;;;;;-60
2022/03/11 03:32:00;;;;;;;544.79;492.52;;;;;;;;;;;;;-60
2022/03/11 03:35:00;;;;;;;543.23;491.00;;;;;;;;;;;;;-60
2022/03/11 03:38:00;;;;;;;542.07;489.89;;;;;;;;;;;;;-60
2022/03/11 03:41:00;;;;;;;543.53;491.23;;;;;;;;;;;;;-61
2022/03/11 03:44:00;;;;;;;541.64;489.39;;;;;;;;;;;;;-60
2022/03/11 03:47:00;;;;;;;540.59;488.45;;;;;;;;;;;;;-59
2022/03/11 03:50:00;;;;;;;536.95;484.93;;;;;;;;;;;;;-59
2022/03/11 03:53:00;;;;;;;538.15;486.09;;;;;;;;;;;;;-59
2022/03/11 03:56:00;;;;;;;538.75;486.58;;;;;;;;;;;;;-60
2022/03/11 03:59:04;;;;;;;539.46;487.32;;;;;;;;;;;;;-60
2022/03/11 04:02:00;;;;;;;536.22;484.33;;;;;;;;;;;;;-60
2022/03/11 04:05:00;;;;;;;538.11;485.93;;;;;;;;;;;;;-60
2022/03/11 04:08:00;;;;;;;536.69;484.67;;;;;;;;;;;;;-60
2022/03/11 04:11:00;;;;;;;539.34;487.17;;;;;;;;;;;;;-59
2022/03/11 04:14:00;;;;;;;539.81;487.81;;;;;;;;;;;;;-60
2022/03/11 04:17:00;;;;;;;537.65;485.62;;;;;;;;;;;;;-60
2022/03/11 04:20:00;;;;;;;540.43;488.38;;;;;;;;;;;;;-60
2022/03/11 04:23:00;;;;;;;537.83;485.59;;;;;;;;;;;;;-60
2022/03/11 04:26:00;;;;;;;536.88;484.93;;;;;;;;;;;;;-60
2022/03/11 04:29:00;;;;;;;537.45;485.42;;;;;;;;;;;;;-60
2022/03/11 04:32:00;;;;;;;537.85;485.78;;;;;;;;;;;;;-60
2022/03/11 04:35:00;;;;;;;535.95;483.97;;;;;;;;;;;;;-60
2022/03/11 04:38:00;;;;;;;531.11;479.31;;;;;;;;;;;;;-60
2022/03/11 04:41:00;;;;;;;533.19;481.25;;;;;;;;;;;;;-60
2022/03/11 04:44:00;;;;;;;535.68;483.73;;;;;;;;;;;;;-60
2022/03/11 04:47:00;;;;;;;535.69;483.73;;;;;;;;;;;;;-60
2022/03/11 04:50:00;;;;;;;536.52;484.55;;;;;;;;;;;;;-60
2022/03/11 04:53:00;;;;;;;539.05;486.88;;;;;;;;;;;;;-59
2022/03/11 04:56:00;;;;;;;531.93;480.21;;;;;;;;;;;;;-60
2022/03/11 04:59:00;;;;;;;535.78;483.95;;;;;;;;;;;;;-60
2022/03/11 05:02:00;;;;;;;527.67;475.89;;;;;;;;;;;;;-60
2022/03/11 05:04:59;;;;;;;529.19;477.47;;;;;;;;;;;;;-60
2022/03/11 05:08:00;;;;;;;530.66;478.91;;;;;;;;;;;;;-60
2022/03/11 05:11:00;;;;;;;538.52;486.51;;;;;;;;;;;;;-60
2022/03/11 05:14:00;;;;;;;540.37;488.24;;;;;;;;;;;;;-60
2022/03/11 05:17:00;;;;;;;539.17;487.27;;;;;;;;;;;;;-60
2022/03/11 05:20:00;;;;;;;538.21;486.42;;;;;;;;;;;;;-60
2022/03/11 05:23:00;;;;;;;535.85;484.05;;;;;;;;;;;;;-60
2022/03/11 05:26:00;;;;;;;539.15;487.32;;;;;;;;;;;;;-60
2022/03/11 05:29:00;;;;;;;536.44;484.59;;;;;;;;;;;;;-59
2022/03/11 05:32:00;;;;;;;540.36;488.43;;;;;;;;;;;;;-60
2022/03/11 05:35:00;;;;;;;536.26;484.50;;;;;;;;;;;;;-60
2022/03/11 05:38:00;;;;;;;532.82;481.18;;;;;;;;;;;;;-59
2022/03/11 05:41:00;;;;;;;537.59;485.75;;;;;;;;;;;;;-60
2022/03/11 05:44:00;;;;;;;535.77;484.13;;;;;;;;;;;;;-60
2022/03/11 05:46:59;;;;;;;530.77;479.31;;;;;;;;;;;;;-60
2022/03/11 05:50:00;;;;;;;524.48;470.97;;;;;;;;;;;;;-61
2022/03/11 05:53:00;;;;;;;508.97;457.25;;;;;;;;;;;;;-57
2022/03/11 05:56:00;;;;;;;490.31;438.98;;;;;;;;;;;;;-59
2022/03/11 05:59:00;;;;;;;488.65;437.50;;;;;;;;;;;;;-51
2022/03/11 06:02:00;;;;;;;487.78;436.53;;;;;;;;;;;;;-57
2022/03/11 06:05:00;;;;;;;487.79;436.81;;;;;;;;;;;;;-52
2022/03/11 06:08:00;;;;;;;488.09;437.63;;;;;;;;;;;;;-60
2022/03/11 06:10:59;;;;;;;498.91;447.97;;;;;;;;;;;;;-52
2022/03/11 06:14:00;;;;;;;504.00;452.68;;;;;;;;;;;;;-60
2022/03/11 06:17:00;;;;;;;502.98;451.97;;;;;;;;;;;;;-59
2022/03/11 06:20:00;;;;;;;512.79;461.26;;;;;;;;;;;;;-52
2022/03/11 06:23:00;;;;;;;512.71;461.48;;;;;;;;;;;;;-52
2022/03/11 06:26:00;;;;;;;512.51;461.17;;;;;;;;;;;;;-52
2022/03/11 06:29:00;;;;;;;513.89;462.67;;;;;;;;;;;;;-53
2022/03/11 06:32:00;;;;;;;512.07;460.93;;;;;;;;;;;;;-55
2022/03/11 06:35:00;;;;;;;515.73;464.38;;;;;;;;;;;;;-55
2022/03/11 06:38:00;;;;;;;520.23;469.02;;;;;;;;;;;;;-55
2022/03/11 06:41:00;;;;;;;521.44;469.82;;;;;;;;;;;;;-55
2022/03/11 06:44:00;;;;;;;521.85;470.50;;;;;;;;;;;;;-58
2022/03/11 06:47:00;;;;;;;521.46;470.04;;;;;;;;;;;;;-58
2022/03/11 06:50:00;;;;;;;523.07;471.55;;;;;;;;;;;;;-55
2022/03/11 06:53:00;;;;;;;525.80;474.22;;;;;;;;;;;;;-51
2022/03/11 06:56:00;;;;;;;526.67;474.97;;;;;;;;;;;;;-52
2022/03/11 06:59:00;;;;;;;523.49;472.59;;;;;;;;;;;;;-57
2022/03/11 07:02:00;;;;;;;523.72;472.43;;;;;;;;;;;;;-60
2022/03/11 07:04:59;;;;;;;524.22;473.15;;;;;;;;;;;;;-61
2022/03/11 07:08:00;;;;;;;525.49;474.08;;;;;;;;;;;;;-57
2022/03/11 07:11:02;;;;;;;527.53;476.25;;;;;;;;;;;;;-54
2022/03/11 07:14:01;;;;;;;532.93;481.46;;;;;;;;;;;;;-58
2022/03/11 07:16:59;;;;;;;512.25;463.03;;;;;;;;;;;;;-56
2022/03/11 07:20:00;;;;;;;517.16;466.99;;;;;;;;;;;;;-58
2022/03/11 07:23:00;;;;;;;516.18;466.27;;;;;;;;;;;;;-59
2022/03/11 07:26:00;;;;;;;523.25;472.82;;;;;;;;;;;;;-55
2022/03/11 07:29:01;;;;;;;516.77;466.81;;;;;;;;;;;;;-52
2022/03/11 07:32:00;;;;;;;527.17;476.40;;;;;;;;;;;;;-55
2022/03/11 07:35:00;;;;;;;520.29;470.02;;;;;;;;;;;;;-59
2022/03/11 07:37:59;;;;;;;525.52;474.95;;;;;;;;;;;;;-59
2022/03/11 07:41:00;;;;;;;525.20;474.75;;;;;;;;;;;;;-59
2022/03/11 07:44:00;;;;;;;526.02;475.17;;;;;;;;;;;;;-59
2022/03/11 07:47:00;;;;;;;522.63;472.26;;;;;;;;;;;;;-51
2022/03/11 07:49:59;;;;;;;524.91;474.05;;;;;;;;;;;;;-51
2022/03/11 07:53:00;;;;;;;530.55;479.41;;;;;;;;;;;;;-59
2022/03/11 07:56:00;;;;;;;520.19;469.94;;;;;;;;;;;;;-57
2022/03/11 07:59:00;;;;;;;526.21;475.43;;;;;;;;;;;;;-58
2022/03/11 08:02:00;;;;;;;521.75;471.15;;;;;;;;;;;;;-57
2022/03/11 08:05:00;;;;;;;521.53;471.24;;;;;;;;;;;;;-52
2022/03/11 08:08:00;;;;;;;516.03;465.93;;;;;;;;;;;;;-60
2022/03/11 08:11:00;;;;;;;527.93;477.22;;;;;;;;;;;;;-52
2022/03/11 08:13:59;;;;;;;525.31;474.39;;;;;;;;;;;;;-57
2022/03/11 08:17:00;;;;;;;524.55;473.95;;;;;;;;;;;;;-59
2022/03/11 08:20:00;;;;;;;518.36;468.18;;;;;;;;;;;;;-58
2022/03/11 08:22:59;;;;;;;518.39;468.17;;;;;;;;;;;;;-51
2022/03/11 08:26:00;;;;;;;520.47;470.03;;;;;;;;;;;;;-58
2022/03/11 08:29:00;;;;;;;525.57;474.76;;;;;;;;;;;;;-59
2022/03/11 08:32:00;;;;;;;519.46;469.10;;;;;;;;;;;;;-58
2022/03/11 08:34:59;;;;;;;524.71;474.04;;;;;;;;;;;;;-55
2022/03/11 08:38:03;;;;;;;520.81;470.15;;;;;;;;;;;;;-51
2022/03/11 08:41:02;;;;;;;519.47;468.76;;;;;;;;;;;;;-52
2022/03/11 08:44:01;;;;;;;523.35;472.59;;;;;;;;;;;;;-55
2022/03/11 08:46:59;;;;;;;512.00;461.83;;;;;;;;;;;;;-59
2022/03/11 08:49:59;;;;;;;517.55;467.21;;;;;;;;;;;;;-52
2022/03/11 08:53:00;;;;;;;521.23;470.70;;;;;;;;;;;;;-51
2022/03/11 08:56:00;;;;;;;513.55;463.43;;;;;;;;;;;;;-55
2022/03/11 08:58:59;;;;;;;514.93;464.56;;;;;;;;;;;;;-55
2022/03/11 09:11:17;;;;;;;496.08;446.40;;;;;;;;;;;;;-51
2022/03/11 09:14:18;;;;;;;506.94;456.75;;;;;;;;;;;;;-52
2022/03/11 09:18:35;;;;;;;525.36;474.19;;;;;;;;;;;;;-48
2022/03/11 09:21:17;;;;;;;518.03;467.75;;;;;;;;;;;;;-49
2022/03/11 09:24:17;;;;;;;525.04;474.02;;;;;;;;;;;;;-53
2022/03/11 09:27:18;;;;;;;519.82;469.41;;;;;;;;;;;;;-55
2022/03/11 09:30:17;;;;;;;526.47;475.61;;;;;;;;;;;;;-56
2022/03/11 09:33:17;;;;;;;526.26;475.63;;;;;;;;;;;;;-56
2022/03/11 09:36:17;;;;;;;525.07;474.41;;;;;;;;;;;;;-58
2022/03/11 09:39:17;;;;;;;527.11;476.26;;;;;;;;;;;;;-56
2022/03/11 09:42:17;;;;;;;533.06;482.11;;;;;;;;;;;;;-58
2022/03/11 09:45:17;;;;;;;537.51;485.95;;;;;;;;;;;;;-57
2022/03/11 09:48:17;;;;;;;540.49;489.03;;;;;;;;;;;;;-56
2022/03/11 09:51:17;;;;;;;544.13;492.23;;;;;;;;;;;;;-53
2022/03/11 09:54:17;;;;;;;543.69;491.90;;;;;;;;;;;;;-51
2022/03/11 09:57:17;;;;;;;548.62;496.59;;;;;;;;;;;;;-55
2022/03/11 10:00:17;;;;;;;553.39;501.27;;;;;;;;;;;;;-57
2022/03/11 10:03:17;;;;;;;553.91;501.51;;;;;;;;;;;;;-58
2022/03/11 10:06:17;;;;;;;560.83;507.99;;;;;;;;;;;;;-51
2022/03/11 10:09:17;;;;;;;566.13;513.21;;;;;;;;;;;;;-50
2022/03/11 10:12:51;;;;;;;570.01;516.51;;;;;;;;;;;;;-49
2022/03/11 10:15:24;;;;;;;570.66;517.33;;;;;;;;;;;;;-55
2022/03/11 10:18:17;;;;;;;573.45;520.05;;;;;;;;;;;;;-58
2022/03/11 10:21:17;;;;;;;573.28;519.75;;;;;;;;;;;;;-56
2022/03/11 10:24:18;;;;;;;580.75;527.27;;;;;;;;;;;;;-54
2022/03/11 10:27:17;;;;;;;577.55;523.90;;;;;;;;;;;;;-52
2022/03/11 10:30:17;;;;;;;583.38;529.51;;;;;;;;;;;;;-52
2022/03/11 10:33:17;;;;;;;584.32;530.38;;;;;;;;;;;;;-57
2022/03/11 10:36:17;;;;;;;583.18;529.53;;;;;;;;;;;;;-52
2022/03/11 10:39:17;;;;;;;580.48;526.77;;;;;;;;;;;;;-53
2022/03/11 10:42:17;;;;;;;585.08;530.97;;;;;;;;;;;;;-58
2022/03/11 10:45:17;;;;;;;591.77;537.37;;;;;;;;;;;;;-57
2022/03/11 10:48:17;;;;;;;585.82;531.87;;;;;;;;;;;;;-52
2022/03/11 10:51:18;;;;;;;590.21;535.84;;;;;;;;;;;;;-53
2022/03/11 10:54:17;;;;;;;590.35;536.14;;;;;;;;;;;;;-60
2022/03/11 10:57:17;;;;;;;597.29;542.62;;;;;;;;;;;;;-56
2022/03/11 11:00:17;;;;;;;595.02;540.45;;;;;;;;;;;;;-62
2022/03/11 11:03:17;;;;;;;595.80;541.28;;;;;;;;;;;;;-58
2022/03/11 11:06:17;;;;;;;594.40;539.73;;;;;;;;;;;;;-51
2022/03/11 11:09:17;;;;;;;599.38;544.52;;;;;;;;;;;;;-63
2022/03/11 11:12:17;;;;;;;600.35;545.33;;;;;;;;;;;;;-58
2022/03/11 11:15:17;;;;;;;595.71;541.19;;;;;;;;;;;;;-61
2022/03/11 11:18:17;;;;;;;598.36;543.40;;;;;;;;;;;;;-54
2022/03/11 11:21:17;;;;;;;599.13;544.36;;;;;;;;;;;;;-61
2022/03/11 11:24:17;;;;;;;594.46;539.69;;;;;;;;;;;;;-60
2022/03/11 11:27:17;;;;;;;593.51;539.15;;;;;;;;;;;;;-52
2022/03/11 11:30:17;;;;;;;597.90;543.31;;;;;;;;;;;;;-54
2022/03/11 11:33:17;;;;;;;593.19;538.37;;;;;;;;;;;;;-54
2022/03/11 11:36:17;;;;;;;589.57;534.52;;;;;;;;;;;;;-54
2022/03/11 11:39:17;;;;;;;594.61;540.09;;;;;;;;;;;;;-54
2022/03/11 11:42:17;;;;;;;594.23;539.69;;;;;;;;;;;;;-57
2022/03/11 11:45:17;;;;;;;595.65;541.04;;;;;;;;;;;;;-53
2022/03/11 11:48:17;;;;;;;595.29;540.88;;;;;;;;;;;;;-58
2022/03/11 11:51:17;;;;;;;590.57;535.96;;;;;;;;;;;;;-53
2022/03/11 11:54:17;;;;;;;590.55;536.09;;;;;;;;;;;;;-56
2022/03/11 11:57:17;;;;;;;592.29;537.65;;;;;;;;;;;;;-58
2022/03/11 12:00:17;;;;;;;588.31;534.27;;;;;;;;;;;;;-53
2022/03/11 12:03:17;;;;;;;587.95;533.55;;;;;;;;;;;;;-53
2022/03/11 12:06:17;;;;;;;590.68;536.41;;;;;;;;;;;;;-51
2022/03/11 12:09:17;;;;;;;592.38;538.04;;;;;;;;;;;;;-58
2022/03/11 12:12:17;;;;;;;593.81;539.66;;;;;;;;;;;;;-58
2022/03/11 12:17:17;;;;;;;580.87;527.13;;;;;;;;;;;;;-59
2022/03/11 12:20:17;;;;;;;587.13;533.08;;;;;;;;;;;;;-54
2022/03/11 12:23:17;;;;;;;592.62;538.52;;;;;;;;;;;;;-58
2022/03/11 12:26:17;;;;;;;595.62;541.41;;;;;;;;;;;;;-54
2022/03/11 12:29:17;;;;;;;599.39;544.87;;;;;;;;;;;;;-53
2022/03/11 12:32:17;;;;;;;595.27;541.07;;;;;;;;;;;;;-57
2022/03/11 12:35:17;;;;;;;596.23;541.86;;;;;;;;;;;;;-58
2022/03/11 12:38:17;;;;;;;595.22;540.95;;;;;;;;;;;;;-57
2022/03/11 12:41:17;;;;;;;597.00;542.57;;;;;;;;;;;;;-54
2022/03/11 12:44:17;;;;;;;597.45;542.97;;;;;;;;;;;;;-58
2022/03/11 12:47:17;;;;;;;600.31;545.84;;;;;;;;;;;;;-56
2022/03/11 12:50:19;;;;;;;596.83;542.31;;;;;;;;;;;;;-58
2022/03/11 12:53:17;;;;;;;593.33;539.03;;;;;;;;;;;;;-57
2022/03/11 12:56:17;;;;;;;601.07;546.40;;;;;;;;;;;;;-59
2022/03/11 12:59:17;;;;;;;599.02;544.58;;;;;;;;;;;;;-58
2022/03/11 13:02:17;;;;;;;601.81;547.21;;;;;;;;;;;;;-58
2022/03/11 13:05:17;;;;;;;601.55;547.01;;;;;;;;;;;;;-58
2022/03/11 13:08:18;;;;;;;600.11;545.63;;;;;;;;;;;;;-58
2022/03/11 13:11:17;;;;;;;608.40;553.34;;;;;;;;;;;;;-52
2022/03/11 13:14:17;;;;;;;603.21;548.56;;;;;;;;;;;;;-54
2022/03/11 13:17:17;;;;;;;604.52;549.81;;;;;;;;;;;;;-57
2022/03/11 13:20:17;;;;;;;600.11;545.76;;;;;;;;;;;;;-58
2022/03/11 13:23:17;;;;;;;601.26;546.60;;;;;;;;;;;;;-58
2022/03/11 13:26:18;;;;;;;602.94;548.28;;;;;;;;;;;;;-59
2022/03/11 13:29:17;;;;;;;608.05;553.21;;;;;;;;;;;;;-57
2022/03/11 13:32:17;;;;;;;603.80;549.13;;;;;;;;;;;;;-56
2022/03/11 13:35:17;;;;;;;606.17;551.28;;;;;;;;;;;;;-57
2022/03/11 13:38:18;;;;;;;603.95;548.98;;;;;;;;;;;;;-62
2022/03/11 13:41:17;;;;;;;603.61;548.79;;;;;;;;;;;;;-57
2022/03/11 13:44:17;;;;;;;604.64;549.70;;;;;;;;;;;;;-60
2022/03/11 13:47:17;;;;;;;601.17;546.29;;;;;;;;;;;;;-61
2022/03/11 13:50:18;;;;;;;613.94;558.17;;;;;;;;;;;;;-51
2022/03/11 13:53:17;;;;;;;607.18;551.41;;;;;;;;;;;;;-60
2022/03/11 13:56:17;;;;;;;616.91;560.94;;;;;;;;;;;;;-54
2022/03/11 13:59:17;;;;;;;613.71;558.16;;;;;;;;;;;;;-56
2022/03/11 14:02:17;;;;;;;612.80;557.01;;;;;;;;;;;;;-58
2022/03/11 14:05:18;;;;;;;612.07;556.04;;;;;;;;;;;;;-54
2022/03/11 14:08:17;;;;;;;614.31;558.64;;;;;;;;;;;;;-54
2022/03/11 14:11:17;;;;;;;620.56;564.49;;;;;;;;;;;;;-58
2022/03/11 14:14:17;;;;;;;617.21;561.21;;;;;;;;;;;;;-60
2022/03/11 14:17:17;;;;;;;615.85;559.81;;;;;;;;;;;;;-56
2022/03/11 14:20:17;;;;;;;615.47;560.02;;;;;;;;;;;;;-58
2022/03/11 14:23:17;;;;;;;614.36;558.58;;;;;;;;;;;;;-58
2022/03/11 14:26:18;;;;;;;612.27;556.65;;;;;;;;;;;;;-55
2022/03/11 14:29:17;;;;;;;610.89;555.75;;;;;;;;;;;;;-57
2022/03/11 14:32:17;;;;;;;613.07;557.61;;;;;;;;;;;;;-60
2022/03/11 14:35:17;;;;;;;620.84;564.93;;;;;;;;;;;;;-58
2022/03/11 14:38:17;;;;;;;623.83;567.79;;;;;;;;;;;;;-57
2022/03/11 14:41:17;;;;;;;620.45;564.36;;;;;;;;;;;;;-56
2022/03/11 14:44:17;;;;;;;619.78;564.00;;;;;;;;;;;;;-59
2022/03/11 14:47:17;;;;;;;612.43;556.67;;;;;;;;;;;;;-64
2022/03/11 14:50:17;;;;;;;610.35;554.77;;;;;;;;;;;;;-55
2022/03/11 14:53:17;;;;;;;618.13;562.35;;;;;;;;;;;;;-57
2022/03/11 14:56:17;;;;;;;620.79;564.76;;;;;;;;;;;;;-59
2022/03/11 14:59:17;;;;;;;626.52;570.46;;;;;;;;;;;;;-52
2022/03/11 15:02:17;;;;;;;619.09;563.43;;;;;;;;;;;;;-63
2022/03/11 15:05:17;;;;;;;621.31;565.43;;;;;;;;;;;;;-52
2022/03/11 15:08:17;;;;;;;619.13;563.36;;;;;;;;;;;;;-59
2022/03/11 15:11:17;;;;;;;617.41;561.77;;;;;;;;;;;;;-59
2022/03/11 15:14:18;;;;;;;619.13;563.45;;;;;;;;;;;;;-55
2022/03/11 15:17:17;;;;;;;613.49;557.93;;;;;;;;;;;;;-56
2022/03/11 15:20:17;;;;;;;610.66;555.34;;;;;;;;;;;;;-54
2022/03/11 15:23:17;;;;;;;620.21;564.13;;;;;;;;;;;;;-61
2022/03/11 15:26:17;;;;;;;618.07;562.45;;;;;;;;;;;;;-58
2022/03/11 15:29:17;;;;;;;624.19;567.83;;;;;;;;;;;;;-56
2022/03/11 15:32:17;;;;;;;620.11;564.25;;;;;;;;;;;;;-54
2022/03/11 15:35:17;;;;;;;619.47;563.61;;;;;;;;;;;;;-52
2022/03/11 15:38:17;;;;;;;618.79;563.01;;;;;;;;;;;;;-59
2022/03/11 15:41:17;;;;;;;617.63;562.02;;;;;;;;;;;;;-56
2022/03/11 15:44:17;;;;;;;614.29;558.48;;;;;;;;;;;;;-56
2022/03/11 15:47:17;;;;;;;621.70;565.60;;;;;;;;;;;;;-56
2022/03/11 15:50:17;;;;;;;616.05;560.34;;;;;;;;;;;;;-53
2022/03/11 15:53:17;;;;;;;613.75;557.99;;;;;;;;;;;;;-55
2022/03/11 15:56:17;;;;;;;622.08;566.28;;;;;;;;;;;;;-57
2022/03/11 15:59:17;;;;;;;615.39;559.89;;;;;;;;;;;;;-49
2022/03/11 16:02:17;;;;;;;617.13;561.32;;;;;;;;;;;;;-55
2022/03/11 16:05:17;;;;;;;615.52;560.13;;;;;;;;;;;;;-51
2022/03/11 16:08:17;;;;;;;616.15;560.40;;;;;;;;;;;;;-63
2022/03/11 16:11:17;;;;;;;614.80;559.39;;;;;;;;;;;;;-63
2022/03/11 16:14:17;;;;;;;616.77;561.22;;;;;;;;;;;;;-61
2022/03/11 16:17:17;;;;;;;618.94;563.45;;;;;;;;;;;;;-60
2022/03/11 16:20:17;;;;;;;615.15;559.47;;;;;;;;;;;;;-53
2022/03/11 16:23:17;;;;;;;616.69;561.08;;;;;;;;;;;;;-62
2022/03/11 16:26:18;;;;;;;616.19;560.52;;;;;;;;;;;;;-54
2022/03/11 16:29:17;;;;;;;615.25;559.73;;;;;;;;;;;;;-53
2022/03/11 16:32:17;;;;;;;615.79;560.25;;;;;;;;;;;;;-58
2022/03/11 16:35:17;;;;;;;620.94;565.25;;;;;;;;;;;;;-59
2022/03/11 16:38:17;;;;;;;622.36;566.50;;;;;;;;;;;;;-57
2022/03/11 16:41:17;;;;;;;620.95;565.11;;;;;;;;;;;;;-57
2022/03/11 16:44:17;;;;;;;623.26;567.47;;;;;;;;;;;;;-59
2022/03/11 16:47:17;;;;;;;622.35;566.53;;;;;;;;;;;;;-58
2022/03/11 16:50:17;;;;;;;621.21;565.59;;;;;;;;;;;;;-52
2022/03/11 16:53:17;;;;;;;624.37;568.63;;;;;;;;;;;;;-54
2022/03/11 16:56:17;;;;;;;627.07;571.09;;;;;;;;;;;;;-58
2022/03/11 16:59:17;;;;;;;626.27;570.51;;;;;;;;;;;;;-54
2022/03/11 17:02:17;;;;;;;631.52;575.37;;;;;;;;;;;;;-62
2022/03/11 17:05:17;;;;;;;633.72;577.48;;;;;;;;;;;;;-61
2022/03/11 17:08:18;;;;;;;624.88;569.28;;;;;;;;;;;;;-60
2022/03/11 17:11:17;;;;;;;626.20;570.51;;;;;;;;;;;;;-62
2022/03/11 17:14:17;;;;;;;627.93;572.21;;;;;;;;;;;;;-58
2022/03/11 17:17:17;;;;;;;628.07;572.25;;;;;;;;;;;;;-56
2022/03/11 17:20:19;;;;;;;627.99;571.95;;;;;;;;;;;;;-54
2022/03/11 17:23:17;;;;;;;625.60;569.82;;;;;;;;;;;;;-59
2022/03/11 17:26:17;;;;;;;625.73;569.97;;;;;;;;;;;;;-55
2022/03/11 17:29:17;;;;;;;627.29;571.52;;;;;;;;;;;;;-53
2022/03/11 17:32:17;;;;;;;626.55;570.63;;;;;;;;;;;;;-55
2022/03/11 17:35:17;;;;;;;625.35;569.42;;;;;;;;;;;;;-54
2022/03/11 17:38:22;;;;;;;627.37;571.49;;;;;;;;;;;;;-51
2022/03/11 17:41:18;;;;;;;626.21;570.37;;;;;;;;;;;;;-53
2022/03/11 17:44:17;;;;;;;630.77;574.67;;;;;;;;;;;;;-59
2022/03/11 17:47:17;;;;;;;620.41;564.81;;;;;;;;;;;;;-55
2022/03/11 17:50:17;;;;;;;620.83;565.41;;;;;;;;;;;;;-57
2022/03/11 17:53:19;;;;;;;627.17;571.43;;;;;;;;;;;;;-57
2022/03/11 17:56:21;;;;;;;626.23;570.35;;;;;;;;;;;;;-58
2022/03/11 17:59:18;;;;;;;623.89;568.16;;;;;;;;;;;;;-58
2022/03/11 18:02:17;;;;;;;624.06;568.31;;;;;;;;;;;;;-55
2022/03/11 18:05:17;;;;;;;622.96;567.42;;;;;;;;;;;;;-66
2022/03/11 18:08:17;;;;;;;625.99;570.21;;;;;;;;;;;;;-66
2022/03/11 18:11:17;;;;;;;629.63;573.75;;;;;;;;;;;;;-58
2022/03/11 18:14:17;;;;;;;631.98;576.11;;;;;;;;;;;;;-56
2022/03/11 18:17:17;;;;;;;633.42;577.24;;;;;;;;;;;;;-54
2022/03/11 18:20:17;;;;;;;628.25;572.45;;;;;;;;;;;;;-59
2022/03/11 18:23:18;;;;;;;631.61;575.61;;;;;;;;;;;;;-54
2022/03/11 18:26:17;;;;;;;625.05;569.34;;;;;;;;;;;;;-55
2022/03/11 18:29:18;;;;;;;626.88;571.07;;;;;;;;;;;;;-55
2022/03/11 18:32:17;;;;;;;624.77;569.03;;;;;;;;;;;;;-55
2022/03/11 18:35:17;;;;;;;623.22;567.61;;;;;;;;;;;;;-55
2022/03/11 18:38:17;;;;;;;620.90;565.37;;;;;;;;;;;;;-54
2022/03/11 18:41:17;;;;;;;624.66;568.94;;;;;;;;;;;;;-59
2022/03/11 18:44:17;;;;;;;617.91;562.53;;;;;;;;;;;;;-57
2022/03/11 18:47:17;;;;;;;620.55;564.95;;;;;;;;;;;;;-54
2022/03/11 18:50:17;;;;;;;620.56;565.07;;;;;;;;;;;;;-55
2022/03/11 18:53:19;;;;;;;623.09;567.47;;;;;;;;;;;;;-60
2022/03/11 18:56:17;;;;;;;620.52;564.99;;;;;;;;;;;;;-60
2022/03/11 18:59:17;;;;;;;620.61;565.12;;;;;;;;;;;;;-56
2022/03/11 19:02:17;;;;;;;619.13;563.69;;;;;;;;;;;;;-58
2022/03/11 19:05:20;;;;;;;620.84;565.21;;;;;;;;;;;;;-61
2022/03/11 19:08:18;;;;;;;625.84;569.89;;;;;;;;;;;;;-59
2022/03/11 19:11:17;;;;;;;624.10;568.40;;;;;;;;;;;;;-58
2022/03/11 19:14:17;;;;;;;621.13;565.85;;;;;;;;;;;;;-62
2022/03/11 19:17:17;;;;;;;626.93;571.25;;;;;;;;;;;;;-57
2022/03/11 19:20:17;;;;;;;632.25;576.30;;;;;;;;;;;;;-60
2022/03/11 19:23:17;;;;;;;620.96;565.77;;;;;;;;;;;;;-59
2022/03/11 19:26:17;;;;;;;619.96;564.75;;;;;;;;;;;;;-60
2022/03/11 19:29:17;;;;;;;614.90;559.99;;;;;;;;;;;;;-59
2022/03/11 19:32:18;;;;;;;613.79;558.88;;;;;;;;;;;;;-60
2022/03/11 19:35:22;;;;;;;617.61;562.48;;;;;;;;;;;;;-60
2022/03/11 19:38:17;;;;;;;617.05;561.93;;;;;;;;;;;;;-60
2022/03/11 19:41:17;;;;;;;619.19;563.99;;;;;;;;;;;;;-59
2022/03/11 19:44:18;;;;;;;618.13;563.03;;;;;;;;;;;;;-62
2022/03/11 19:47:17;;;;;;;616.07;560.94;;;;;;;;;;;;;-59
2022/03/11 19:50:21;;;;;;;615.97;560.94;;;;;;;;;;;;;-58
2022/03/11 19:53:17;;;;;;;618.97;563.74;;;;;;;;;;;;;-58
2022/03/11 19:56:17;;;;;;;616.97;561.83;;;;;;;;;;;;;-60
2022/03/11 19:59:17;;;;;;;615.93;560.82;;;;;;;;;;;;;-59
2022/03/11 20:02:17;;;;;;;617.81;562.55;;;;;;;;;;;;;-59
2022/03/11 20:05:17;;;;;;;619.78;564.58;;;;;;;;;;;;;-54
2022/03/11 20:08:17;;;;;;;619.46;564.27;;;;;;;;;;;;;-61
2022/03/11 20:11:17;;;;;;;618.69;563.61;;;;;;;;;;;;;-57
2022/03/11 20:14:17;;;;;;;620.62;565.43;;;;;;;;;;;;;-61
2022/03/11 20:17:17;;;;;;;620.66;565.35;;;;;;;;;;;;;-58
2022/03/11 20:20:17;;;;;;;619.19;563.85;;;;;;;;;;;;;-57
2022/03/11 20:23:17;;;;;;;620.08;564.76;;;;;;;;;;;;;-58
2022/03/11 20:26:17;;;;;;;621.01;565.63;;;;;;;;;;;;;-53
2022/03/11 20:29:17;;;;;;;621.95;566.43;;;;;;;;;;;;;-51
2022/03/11 20:32:17;;;;;;;618.09;562.97;;;;;;;;;;;;;-51
2022/03/11 20:35:17;;;;;;;619.13;563.94;;;;;;;;;;;;;-52
2022/03/11 20:38:17;;;;;;;617.07;561.93;;;;;;;;;;;;;-52
2022/03/11 20:41:18;;;;;;;615.09;559.99;;;;;;;;;;;;;-59
2022/03/11 20:44:17;;;;;;;607.99;553.23;;;;;;;;;;;;;-49
2022/03/11 20:47:17;;;;;;;608.71;554.03;;;;;;;;;;;;;-51
2022/03/11 20:50:21;;;;;;;611.53;556.24;;;;;;;;;;;;;-53
2022/03/11 20:55:17;;;;;;;592.33;538.21;;;;;;;;;;;;;-53
2022/03/11 20:58:17;;;;;;;602.83;548.11;;;;;;;;;;;;;-57
2022/03/11 21:01:20;;;;;;;605.09;550.48;;;;;;;;;;;;;-56
2022/03/11 21:04:18;;;;;;;606.10;551.44;;;;;;;;;;;;;-55
2022/03/11 21:07:17;;;;;;;607.36;552.65;;;;;;;;;;;;;-64
2022/03/11 21:10:17;;;;;;;604.97;550.23;;;;;;;;;;;;;-54
2022/03/11 21:13:17;;;;;;;606.42;551.69;;;;;;;;;;;;;-57
2022/03/11 21:16:17;;;;;;;609.13;554.40;;;;;;;;;;;;;-51
2022/03/11 21:19:27;;;;;;;611.38;555.92;;;;;;;;;;;;;-51
2022/03/11 21:22:19;;;;;;;602.20;547.84;;;;;;;;;;;;;-52
2022/03/11 21:25:17;;;;;;;598.66;544.17;;;;;;;;;;;;;-57